createdAt,value
2023-01-17T00:02:01.012Z,1.40
2023-01-17T00:04:48.102Z,0.50
2023-01-17T00:07:35.380Z,0.90
2023-01-17T00:10:07.245Z,0.60
2023-01-17T00:12:34.814Z,0.70
2023-01-17T00:15:02.407Z,0.60
2023-01-17T00:17:30.269Z,0.65
2023-01-17T00:20:18.638Z,0.70
2023-01-17T00:23:05.753Z,0.73
2023-01-17T00:25:53.957Z,0.88
2023-01-17T00:28:21.044Z,0.60
2023-01-17T00:30:48.163Z,1.17
2023-01-17T00:33:15.270Z,0.90
2023-01-17T00:35:42.544Z,0.88
2023-01-17T00:38:10.988Z,0.85
2023-01-17T00:40:39.073Z,0.70
2023-01-17T00:43:25.447Z,0.57
2023-01-17T00:46:11.392Z,0.50
2023-01-17T00:48:57.496Z,0.70
2023-01-17T00:51:43.767Z,0.55
2023-01-17T00:54:29.853Z,0.60
2023-01-17T00:57:15.844Z,0.70
2023-01-17T01:00:02.295Z,0.70
2023-01-17T01:02:48.576Z,0.50
2023-01-17T01:05:35.052Z,0.45
2023-01-17T01:08:21.214Z,0.40
2023-01-17T01:11:07.746Z,0.60
2023-01-17T01:13:54.099Z,0.50
2023-01-17T01:16:39.937Z,0.45
2023-01-17T01:19:26.015Z,0.50
2023-01-17T01:22:11.933Z,0.40
2023-01-17T01:24:57.851Z,0.55
2023-01-17T01:27:44.960Z,0.40
2023-01-17T01:30:31.114Z,0.82
2023-01-17T01:33:17.194Z,0.50
2023-01-17T01:35:44.411Z,0.47
2023-01-17T01:38:11.547Z,0.40
2023-01-17T01:40:45.707Z,0.40
2023-01-17T01:43:13.928Z,0.45
2023-01-17T01:45:41.399Z,0.50
2023-01-17T01:48:16.569Z,0.40
2023-01-17T01:50:44.079Z,0.40
2023-01-17T01:53:11.456Z,0.43
2023-01-17T01:55:40.078Z,0.55
2023-01-17T01:58:15.815Z,0.50
2023-01-17T02:00:43.039Z,0.68
2023-01-17T02:03:19.707Z,0.60
2023-01-17T02:05:47.498Z,0.55
2023-01-17T02:08:19.629Z,0.50
2023-01-17T02:10:47.591Z,0.60
2023-01-17T02:13:16.649Z,1.13
2023-01-17T02:15:50.463Z,0.50
2023-01-17T02:18:27.867Z,1.10
2023-01-17T02:21:01.590Z,1.08
2023-01-17T02:23:34.923Z,1.52
2023-01-17T02:26:02.129Z,1.25
2023-01-17T02:28:48.320Z,4.25
2023-01-17T02:31:18.475Z,1.20
2023-01-17T02:33:59.852Z,0.90
2023-01-17T02:36:31.008Z,0.75
2023-01-17T02:38:58.127Z,0.50
2023-01-17T02:41:30.258Z,0.60
2023-01-17T02:43:57.475Z,0.60
2023-01-17T02:46:24.785Z,0.70
2023-01-17T02:48:52.617Z,0.70
2023-01-17T02:51:43.950Z,0.70
2023-01-17T02:54:24.740Z,0.60
2023-01-17T02:56:51.903Z,0.60
2023-01-17T02:59:33.798Z,0.57
2023-01-17T03:02:10.467Z,0.60
2023-01-17T03:04:42.218Z,0.63
2023-01-17T03:07:16.661Z,0.63
2023-01-17T03:09:45.873Z,0.60
2023-01-17T03:12:13.389Z,0.50
2023-01-17T03:14:40.624Z,0.60
2023-01-17T03:17:07.941Z,0.55
2023-01-17T03:19:35.111Z,0.40
2023-01-17T03:22:02.569Z,0.40
2023-01-17T03:24:29.738Z,0.70
2023-01-17T03:26:57.077Z,0.60
2023-01-17T03:29:24.250Z,1.08
2023-01-17T03:31:51.400Z,0.50
2023-01-17T03:34:18.528Z,0.50
2023-01-17T03:36:45.704Z,0.77
2023-01-17T03:39:12.859Z,0.80
2023-01-17T03:41:40.099Z,0.77
2023-01-17T03:44:07.269Z,0.90
2023-01-17T03:46:34.573Z,0.70
2023-01-17T03:49:01.689Z,0.85
2023-01-17T03:51:28.841Z,0.90
2023-01-17T03:53:56.060Z,0.77
2023-01-17T03:56:23.229Z,0.80
2023-01-17T03:58:51.516Z,0.88
2023-01-17T04:01:19.086Z,0.80
2023-01-17T04:03:46.416Z,0.90
2023-01-17T04:06:13.594Z,0.95
2023-01-17T04:08:41.719Z,0.68
2023-01-17T04:11:08.873Z,0.98
2023-01-17T04:13:36.155Z,0.88
2023-01-17T04:16:03.338Z,1.00
2023-01-17T04:18:30.527Z,0.63
2023-01-17T04:20:57.735Z,0.80
2023-01-17T04:23:25.072Z,0.90
2023-01-17T04:25:52.236Z,0.77
2023-01-17T04:28:19.418Z,0.85
2023-01-17T04:30:46.626Z,0.90
2023-01-17T04:33:13.791Z,0.80
2023-01-17T04:35:40.983Z,0.98
2023-01-17T04:38:08.111Z,0.88
2023-01-17T04:40:35.290Z,1.08
2023-01-17T04:43:02.503Z,1.00
2023-01-17T04:45:29.659Z,0.85
2023-01-17T04:47:56.806Z,0.98
2023-01-17T04:50:23.951Z,1.00
2023-01-17T04:52:51.125Z,0.93
2023-01-17T04:55:18.806Z,1.35
2023-01-17T04:57:46.253Z,1.20
2023-01-17T05:00:13.772Z,0.85
2023-01-17T05:02:41.101Z,1.10
2023-01-17T05:05:08.602Z,0.90
2023-01-17T05:07:35.970Z,1.02
2023-01-17T05:10:04.474Z,1.10
2023-01-17T05:12:31.705Z,0.98
2023-01-17T05:14:58.926Z,0.90
2023-01-17T05:17:26.108Z,1.08
2023-01-17T05:19:53.330Z,1.08
2023-01-17T05:22:20.477Z,0.60
2023-01-17T05:24:48.449Z,0.88
2023-01-17T05:27:15.893Z,1.05
2023-01-17T05:29:43.076Z,1.40
2023-01-17T05:32:10.392Z,1.45
2023-01-17T05:34:37.631Z,1.20
2023-01-17T05:37:04.769Z,1.30
2023-01-17T05:39:32.063Z,1.17
2023-01-17T05:42:00.213Z,0.93
2023-01-17T05:44:27.714Z,0.90
2023-01-17T05:46:55.813Z,0.90
2023-01-17T05:49:23.055Z,1.20
2023-01-17T05:51:50.608Z,1.27
2023-01-17T05:54:18.096Z,0.90
2023-01-17T05:56:45.398Z,0.95
2023-01-17T05:59:14.173Z,0.98
2023-01-17T06:01:41.662Z,0.90
2023-01-17T06:04:08.955Z,0.90
2023-01-17T06:06:36.188Z,1.30
2023-01-17T06:09:03.861Z,0.88
2023-01-17T06:11:37.037Z,0.77
2023-01-17T06:14:04.363Z,0.70
2023-01-17T06:16:31.644Z,0.80
2023-01-17T06:18:58.812Z,0.80
2023-01-17T06:21:25.984Z,0.65
2023-01-17T06:23:55.426Z,0.98
2023-01-17T06:26:22.612Z,0.80
2023-01-17T06:28:49.759Z,0.90
2023-01-17T06:31:17.215Z,0.55
2023-01-17T06:33:44.478Z,0.60
2023-01-17T06:36:11.599Z,0.63
2023-01-17T06:38:38.829Z,0.50
2023-01-17T06:41:06.074Z,0.47
2023-01-17T06:43:34.882Z,0.52
2023-01-17T06:46:02.546Z,0.60
2023-01-17T06:48:29.717Z,0.68
2023-01-17T06:50:58.211Z,0.60
2023-01-17T06:53:25.826Z,0.60
2023-01-17T06:55:55.961Z,0.55
2023-01-17T06:58:23.114Z,0.40
2023-01-17T07:00:50.369Z,0.38
2023-01-17T07:03:21.603Z,0.70
2023-01-17T07:05:49.424Z,0.60
2023-01-17T07:08:17.128Z,0.50
2023-01-17T07:10:47.847Z,0.50
2023-01-17T07:13:15.297Z,0.45
2023-01-17T07:15:42.607Z,0.50
2023-01-17T07:18:09.848Z,0.50
2023-01-17T07:20:38.358Z,0.40
2023-01-17T07:23:06.287Z,0.50
2023-01-17T07:25:33.538Z,0.63
2023-01-17T07:28:00.794Z,0.52
2023-01-17T07:30:28.016Z,0.50
2023-01-17T07:32:56.656Z,0.73
2023-01-17T07:35:26.716Z,0.50
2023-01-17T07:37:54.535Z,0.77
2023-01-17T07:40:22.635Z,0.70
2023-01-17T07:42:49.851Z,0.60
2023-01-17T07:45:17.629Z,0.60
2023-01-17T07:47:45.056Z,0.60
2023-01-17T07:50:13.543Z,0.30
2023-01-17T07:52:40.751Z,0.40
2023-01-17T07:55:08.437Z,0.45
2023-01-17T07:57:35.920Z,0.40
2023-01-17T08:00:03.216Z,0.30
2023-01-17T08:02:30.357Z,0.63
2023-01-17T08:04:57.487Z,0.63
2023-01-17T08:07:24.678Z,0.73
2023-01-17T08:09:52.101Z,0.60
2023-01-17T08:12:19.254Z,0.55
2023-01-17T08:14:46.484Z,0.50
2023-01-17T08:17:15.077Z,0.38
2023-01-17T08:19:42.239Z,0.75
2023-01-17T08:22:09.533Z,0.50
2023-01-17T08:24:37.478Z,0.68
2023-01-17T08:27:04.786Z,0.80
2023-01-17T08:29:31.993Z,0.90
2023-01-17T08:31:59.158Z,0.95
2023-01-17T08:34:26.439Z,0.70
2023-01-17T08:36:54.051Z,0.60
2023-01-17T08:39:21.710Z,0.80
2023-01-17T08:41:48.875Z,1.13
2023-01-17T08:44:16.128Z,0.68
2023-01-17T08:46:44.224Z,0.80
2023-01-17T08:49:12.005Z,0.80
2023-01-17T08:51:39.658Z,0.65
2023-01-17T08:54:07.043Z,0.80
2023-01-17T08:56:34.206Z,0.73
2023-01-17T08:59:03.026Z,0.70
2023-01-17T09:01:30.269Z,0.85
2023-01-17T09:03:57.606Z,0.90
2023-01-17T09:06:24.817Z,0.60
2023-01-17T09:08:54.723Z,0.52
2023-01-17T09:11:21.895Z,0.70
2023-01-17T09:13:49.078Z,0.85
2023-01-17T09:16:16.283Z,1.35
2023-01-17T09:18:43.615Z,1.15
2023-01-17T09:21:15.607Z,1.48
2023-01-17T09:23:43.042Z,0.90
2023-01-17T09:26:15.794Z,1.10
2023-01-17T09:28:42.937Z,0.70
2023-01-17T09:31:10.254Z,0.70
2023-01-17T09:33:37.583Z,0.82
2023-01-17T09:36:05.532Z,0.70
2023-01-17T09:38:33.566Z,0.70
2023-01-17T09:41:02.072Z,0.70
2023-01-17T09:43:41.183Z,0.65
2023-01-17T09:46:14.573Z,0.80
2023-01-17T09:48:43.603Z,0.65
2023-01-17T09:51:15.285Z,0.88
2023-01-17T09:53:43.915Z,0.80
2023-01-17T09:56:17.026Z,1.00
2023-01-17T09:59:03.235Z,0.82
2023-01-17T10:01:49.160Z,0.80
2023-01-17T10:04:19.510Z,0.70
2023-01-17T10:06:55.911Z,1.08
2023-01-17T10:09:23.103Z,0.90
2023-01-17T10:12:14.437Z,0.90
2023-01-17T10:14:41.651Z,1.25
2023-01-17T10:17:17.343Z,1.13
2023-01-17T10:19:55.650Z,1.20
2023-01-17T10:22:22.993Z,1.20
2023-01-17T10:24:53.180Z,1.60
2023-01-17T10:27:22.638Z,0.98
2023-01-17T10:29:51.496Z,1.42
2023-01-17T10:32:20.260Z,0.90
2023-01-17T10:34:50.138Z,1.00
2023-01-17T10:37:20.413Z,1.10
2023-01-17T10:39:49.379Z,0.80
2023-01-17T10:42:16.500Z,1.02
2023-01-17T10:45:00.066Z,0.98
2023-01-17T10:47:29.152Z,1.10
2023-01-17T10:50:03.113Z,1.25
2023-01-17T10:52:53.282Z,1.17
2023-01-17T10:55:36.014Z,1.33
2023-01-17T11:00:45.317Z,1.10
2023-01-17T11:03:13.143Z,0.60
2023-01-17T11:05:43.643Z,0.77
2023-01-17T11:08:13.441Z,1.17
2023-01-17T11:10:45.187Z,1.10
2023-01-17T11:13:21.636Z,2.27
2023-01-17T11:15:50.577Z,0.93
2023-01-17T11:18:19.331Z,1.05
2023-01-17T11:20:46.984Z,1.10
2023-01-17T11:23:14.244Z,0.85
2023-01-17T11:25:41.959Z,1.30
2023-01-17T11:28:23.049Z,1.10
2023-01-17T11:30:55.384Z,1.13
2023-01-17T11:33:34.757Z,1.23
2023-01-17T11:36:02.035Z,1.50
2023-01-17T11:38:29.206Z,1.10
2023-01-17T11:41:16.372Z,1.30
2023-01-17T11:43:50.971Z,0.90
2023-01-17T11:46:19.123Z,0.90
2023-01-17T11:48:53.965Z,1.00
2023-01-17T11:51:28.962Z,0.98
2023-01-17T11:54:04.170Z,0.90
2023-01-17T11:56:31.501Z,0.80
2023-01-17T11:59:17.557Z,1.08
2023-01-17T12:01:44.667Z,1.10
2023-01-17T12:04:25.568Z,1.15
2023-01-17T12:07:00.883Z,1.60
2023-01-17T12:09:39.744Z,1.70
2023-01-17T12:12:25.793Z,1.40
2023-01-17T12:15:12.017Z,2.15
2023-01-17T12:17:39.229Z,1.65
2023-01-17T12:20:12.695Z,1.17
2023-01-17T12:22:42.744Z,1.30
2023-01-17T12:25:15.674Z,1.42
2023-01-17T12:27:55.546Z,1.23
2023-01-17T12:30:41.468Z,1.30
2023-01-17T12:33:19.178Z,1.85
2023-01-17T12:35:52.935Z,1.98
2023-01-17T12:38:34.384Z,1.55
2023-01-17T12:41:01.628Z,1.50
2023-01-17T12:43:33.493Z,1.58
2023-01-17T12:46:04.493Z,1.52
2023-01-17T12:48:34.983Z,1.58
2023-01-17T12:51:24.164Z,1.50
2023-01-17T12:53:54.437Z,1.70
2023-01-17T12:56:34.859Z,1.80
2023-01-17T12:59:08.724Z,1.58
2023-01-17T13:01:39.837Z,1.77
2023-01-17T13:04:16.383Z,1.45
2023-01-17T13:06:52.763Z,1.63
2023-01-17T13:09:21.621Z,1.55
2023-01-17T13:12:06.755Z,1.48
2023-01-17T13:14:34.026Z,1.75
2023-01-17T13:17:03.441Z,1.60
2023-01-17T13:19:45.866Z,2.42
2023-01-17T13:22:17.686Z,1.42
2023-01-17T13:24:53.601Z,2.28
2023-01-17T13:27:41.178Z,2.28
2023-01-17T13:30:19.143Z,1.60
2023-01-17T13:32:46.540Z,1.77
2023-01-17T13:35:16.655Z,2.00
2023-01-17T13:37:56.745Z,1.88
2023-01-17T13:40:35.282Z,1.63
2023-01-17T13:43:03.609Z,1.45
2023-01-17T13:45:35.141Z,1.70
2023-01-17T13:48:11.407Z,1.33
2023-01-17T13:50:41.590Z,1.40
2023-01-17T13:53:27.419Z,1.60
2023-01-17T13:56:00.604Z,0.80
2023-01-17T13:58:30.806Z,0.70
2023-01-17T14:00:58.166Z,0.60
2023-01-17T14:03:55.083Z,0.77
2023-01-17T14:06:30.325Z,0.80
2023-01-17T14:09:09.391Z,0.90
2023-01-17T14:11:37.428Z,1.00
2023-01-17T14:14:23.393Z,1.02
2023-01-17T14:16:50.657Z,0.63
2023-01-17T14:19:27.260Z,0.60
2023-01-17T14:22:14.364Z,0.50
2023-01-17T14:25:00.598Z,0.30
2023-01-17T14:27:29.402Z,0.47
2023-01-17T14:30:00.257Z,0.70
2023-01-17T14:32:32.821Z,0.30
2023-01-17T14:37:36.827Z,0.30
2023-01-17T14:40:14.656Z,0.50
2023-01-17T14:42:42.984Z,0.45
2023-01-17T14:45:13.885Z,0.35
2023-01-17T14:47:44.583Z,0.57
2023-01-17T14:50:14.222Z,0.50
2023-01-17T14:52:41.452Z,0.95
2023-01-17T14:55:16.403Z,0.40
2023-01-17T14:57:43.795Z,0.50
2023-01-17T15:00:21.049Z,2.88
2023-01-17T15:02:50.642Z,1.88
2023-01-17T15:05:19.750Z,6.13
2023-01-17T15:07:48.619Z,2.28
2023-01-17T15:10:17.986Z,1.63
2023-01-17T15:12:48.857Z,1.50
2023-01-17T15:15:32.703Z,1.00
2023-01-17T15:18:10.140Z,1.10
2023-01-17T15:20:37.888Z,0.80
2023-01-17T15:23:05.582Z,1.25
2023-01-17T15:25:32.961Z,1.25
2023-01-17T15:28:00.247Z,1.30
2023-01-17T15:30:27.443Z,1.20
2023-01-17T15:32:54.704Z,1.45
2023-01-17T15:35:22.424Z,1.40
2023-01-17T15:37:53.912Z,4.13
2023-01-17T15:40:22.554Z,3.45
2023-01-17T15:42:56.475Z,6.53
2023-01-17T15:45:25.244Z,6.68
2023-01-17T15:47:52.382Z,5.90
2023-01-17T15:50:31.246Z,5.85
2023-01-17T15:53:00.935Z,6.93
2023-01-17T15:55:32.503Z,4.50
2023-01-17T15:58:00.129Z,3.20
2023-01-17T16:00:38.246Z,5.82
2023-01-17T16:03:20.597Z,6.70
2023-01-17T16:05:48.229Z,3.60
2023-01-17T16:08:24.627Z,2.60
2023-01-17T16:10:53.899Z,1.95
2023-01-17T16:13:21.895Z,3.53
2023-01-17T16:15:49.275Z,2.78
2023-01-17T16:18:18.509Z,15.25
2023-01-17T16:20:50.649Z,19.17
2023-01-17T16:23:17.943Z,34.13
2023-01-17T16:25:46.294Z,31.67
2023-01-17T16:28:13.590Z,30.92
2023-01-17T16:30:40.797Z,41.03
2023-01-17T16:33:10.599Z,31.05
2023-01-17T16:35:40.018Z,26.77
2023-01-17T16:38:09.189Z,18.13
2023-01-17T16:40:40.370Z,11.30
2023-01-17T16:43:07.842Z,24.67
2023-01-17T16:45:41.715Z,23.85
2023-01-17T16:48:09.391Z,7.97
2023-01-17T16:50:40.779Z,2.92
2023-01-17T16:53:08.011Z,2.05
2023-01-17T16:55:35.240Z,2.00
2023-01-17T16:58:02.460Z,2.60
2023-01-17T17:00:29.636Z,2.40
2023-01-17T17:02:56.809Z,2.15
2023-01-17T17:05:24.054Z,2.58
2023-01-17T17:07:53.049Z,2.20
2023-01-17T17:10:24.939Z,2.42
2023-01-17T17:12:52.181Z,3.38
2023-01-17T17:15:19.551Z,3.00
2023-01-17T17:17:48.043Z,3.55
2023-01-17T17:20:15.880Z,4.40
2023-01-17T17:22:44.064Z,4.30
2023-01-17T17:25:12.017Z,4.88
2023-01-17T17:27:39.283Z,5.93
2023-01-17T17:30:06.724Z,4.53
2023-01-17T17:32:34.097Z,3.67
2023-01-17T17:35:01.312Z,4.13
2023-01-17T17:37:29.162Z,3.90
2023-01-17T17:39:57.025Z,3.55
2023-01-17T17:42:24.431Z,4.13
2023-01-17T17:44:51.725Z,4.28
2023-01-17T17:47:18.968Z,4.53
2023-01-17T17:49:46.205Z,4.80
2023-01-17T17:52:13.574Z,4.95
2023-01-17T17:54:40.758Z,4.97
2023-01-17T17:57:07.980Z,4.80
2023-01-17T17:59:35.206Z,5.30
2023-01-17T18:02:02.495Z,5.32
2023-01-17T18:04:29.832Z,5.20
2023-01-17T18:06:57.930Z,5.43
2023-01-17T18:09:25.374Z,8.90
2023-01-17T18:11:52.598Z,6.53
2023-01-17T18:14:22.169Z,5.93
2023-01-17T18:16:50.655Z,5.65
2023-01-17T18:19:19.271Z,5.43
2023-01-17T18:21:46.577Z,5.40
2023-01-17T18:24:14.694Z,6.15
2023-01-17T18:26:42.073Z,7.65
2023-01-17T18:29:14.667Z,5.43
2023-01-17T18:34:10.926Z,7.55
2023-01-17T18:36:38.575Z,8.73
2023-01-17T18:39:11.004Z,6.75
2023-01-17T18:41:38.201Z,6.95
2023-01-17T18:44:05.901Z,9.07
2023-01-17T18:46:33.778Z,8.13
2023-01-17T18:49:01.031Z,9.38
2023-01-17T18:51:29.739Z,6.60
2023-01-17T18:53:58.025Z,7.93
2023-01-17T18:56:25.345Z,9.80
2023-01-17T18:58:52.704Z,8.20
2023-01-17T19:01:20.016Z,7.38
2023-01-17T19:03:49.267Z,7.82
2023-01-17T19:06:20.757Z,8.38
2023-01-17T19:08:51.815Z,8.13
2023-01-17T19:11:20.198Z,7.13
2023-01-17T19:13:48.763Z,6.90
2023-01-17T19:16:17.203Z,6.30
2023-01-17T19:18:44.467Z,7.20
2023-01-17T19:21:13.154Z,8.05
2023-01-17T19:23:41.039Z,7.60
2023-01-17T19:26:09.149Z,6.97
2023-01-17T19:28:40.525Z,5.85
2023-01-17T19:31:09.224Z,7.70
2023-01-17T19:33:37.284Z,8.50
2023-01-17T19:36:05.893Z,8.60
2023-01-17T19:38:34.829Z,7.80
2023-01-17T19:41:09.158Z,6.45
2023-01-17T19:43:36.707Z,8.38
2023-01-17T19:46:04.007Z,8.10
2023-01-17T19:48:31.338Z,9.23
2023-01-17T19:51:03.991Z,6.10
2023-01-17T19:53:31.267Z,7.45
2023-01-17T19:55:58.590Z,8.05
2023-01-17T19:58:25.774Z,5.82
2023-01-17T20:00:53.168Z,7.30
2023-01-17T20:03:22.487Z,7.20
2023-01-17T20:05:58.773Z,6.82
2023-01-17T20:08:25.932Z,7.65
2023-01-17T20:10:53.132Z,6.70
2023-01-17T20:13:20.345Z,6.30
2023-01-17T20:15:47.580Z,5.82
2023-01-17T20:18:14.762Z,5.53
2023-01-17T20:20:56.365Z,5.70
2023-01-17T20:23:24.429Z,4.50
2023-01-17T20:25:58.949Z,4.85
2023-01-17T20:28:27.263Z,4.22
2023-01-17T20:30:55.255Z,5.38
2023-01-17T20:33:23.278Z,6.00
2023-01-17T20:36:04.906Z,9.48
2023-01-17T20:38:45.762Z,4.10
2023-01-17T20:41:20.107Z,7.07
2023-01-17T20:43:48.329Z,5.57
2023-01-17T20:46:15.807Z,4.93
2023-01-17T20:48:46.930Z,4.38
2023-01-17T20:51:15.003Z,4.05
2023-01-17T20:53:43.347Z,5.10
2023-01-17T20:56:14.440Z,4.93
2023-01-17T20:58:42.077Z,6.30
2023-01-17T21:01:10.335Z,5.40
2023-01-17T21:03:38.036Z,5.38
2023-01-17T21:06:10.155Z,5.95
2023-01-17T21:08:38.460Z,4.30
2023-01-17T21:11:06.112Z,6.13
2023-01-17T21:13:33.703Z,5.20
2023-01-17T21:16:01.086Z,5.28
2023-01-17T21:18:31.600Z,5.90
2023-01-17T21:21:07.300Z,5.07
2023-01-17T21:23:35.163Z,4.40
2023-01-17T21:26:02.476Z,5.57
2023-01-17T21:28:30.421Z,4.90
2023-01-17T21:30:57.934Z,4.82
2023-01-17T21:33:25.964Z,4.80
2023-01-17T21:35:53.130Z,5.32
2023-01-17T21:38:20.532Z,4.28
2023-01-17T21:40:47.742Z,5.03
2023-01-17T21:43:15.693Z,5.13
2023-01-17T21:45:42.959Z,5.22
2023-01-17T21:48:14.612Z,4.70
2023-01-17T21:50:41.815Z,5.40
2023-01-17T21:53:10.125Z,4.55
2023-01-17T21:55:56.724Z,4.55
2023-01-17T21:58:42.855Z,5.55
2023-01-17T22:01:23.723Z,7.57
2023-01-17T22:04:01.549Z,5.38
2023-01-17T22:06:30.105Z,6.32
2023-01-17T22:08:57.330Z,6.78
2023-01-17T22:11:25.728Z,5.90
2023-01-17T22:13:53.370Z,6.30
2023-01-17T22:16:21.724Z,6.38
2023-01-17T22:18:49.449Z,5.40
2023-01-17T22:21:21.312Z,4.32
2023-01-17T22:23:53.119Z,5.20
2023-01-17T22:26:21.435Z,4.88
2023-01-17T22:28:49.055Z,5.10
2023-01-17T22:31:19.206Z,4.93
2023-01-17T22:33:46.954Z,4.05
2023-01-17T22:36:14.967Z,4.40
2023-01-17T22:38:43.048Z,7.10
2023-01-17T22:41:12.095Z,4.43
2023-01-17T22:43:40.905Z,3.97
2023-01-17T22:46:09.521Z,4.90
2023-01-17T22:48:37.685Z,4.45
2023-01-17T22:51:05.939Z,3.90
2023-01-17T22:53:33.185Z,3.30
2023-01-17T22:56:04.545Z,4.25
2023-01-17T22:58:32.358Z,2.80
2023-01-17T23:01:06.938Z,2.80
2023-01-17T23:03:34.984Z,2.35
2023-01-17T23:06:09.152Z,2.25
2023-01-17T23:08:37.103Z,2.28
2023-01-17T23:11:26.509Z,2.20
2023-01-17T23:13:54.069Z,2.83
2023-01-17T23:16:39.784Z,2.40
2023-01-17T23:19:23.571Z,1.83
2023-01-17T23:22:10.491Z,2.22
2023-01-17T23:24:42.970Z,2.35
2023-01-17T23:29:56.208Z,2.05
2023-01-17T23:32:23.665Z,2.15
2023-01-17T23:34:51.899Z,1.55
2023-01-17T23:37:19.067Z,2.25
2023-01-17T23:39:46.320Z,2.53
2023-01-17T23:42:32.370Z,2.35
2023-01-17T23:44:59.540Z,1.98
2023-01-17T23:47:26.744Z,2.33
2023-01-17T23:49:53.864Z,2.85
2023-01-17T23:52:21.099Z,1.95
2023-01-17T23:54:48.512Z,2.20
2023-01-17T23:57:15.722Z,1.73
2023-01-17T23:59:43.431Z,2.15
